Time;durP1;ratioP1;P1;durP2;ratioP2;P2;SDS_P1;SDS_P2;PMS_P1;PMS_P2;Temp;Humidity;BMP_temperature;BMP_pressure;BME280_temperature;BME280_humidity;BME280_pressure;Samples;Min_cycle;Max_cycle;Signal;HPM_P1;HPM_P2
2023/10/27 00:01:33;;;;;;;;;;;11.30;99.90;;;;;;5052870;28;20425;-79
2023/10/27 00:04:01;;;;;;;;;;;11.30;99.90;;;;;;5056200;28;19970;-76
2023/10/27 00:06:32;;;;;;;;;;;11.30;99.90;;;;;;5050946;28;20080;-76
2023/10/27 00:09:00;;;;;;;;;;;11.30;99.90;;;;;;5051531;28;20441;-77
2023/10/27 00:11:28;;;;;;;;;;;11.30;99.90;;;;;;5059028;28;19971;-77
2023/10/27 00:13:58;;;;;;;;;;;11.20;99.90;;;;;;5056698;28;19963;-78
2023/10/27 00:16:26;;;;;;;;;;;11.10;99.90;;;;;;5061483;28;20057;-76
2023/10/27 00:18:54;;;;;;;;;;;11.00;99.90;;;;;;5051260;28;20479;-76
2023/10/27 00:21:22;;;;;;;;;;;10.90;99.90;;;;;;5050565;28;19977;-76
2023/10/27 00:23:50;;;;;;;;;;;10.90;99.90;;;;;;5051160;28;19963;-77
2023/10/27 00:26:17;;;;;;;;;;;11.00;99.90;;;;;;5059408;28;19967;-76
2023/10/27 00:28:47;;;;;;;;;;;11.00;99.90;;;;;;5052880;28;19963;-77
2023/10/27 00:31:17;;;;;;;;;;;10.90;99.90;;;;;;5058721;28;20326;-77
2023/10/27 00:33:44;;;;;;;;;;;10.90;99.90;;;;;;5054527;28;19969;-76
2023/10/27 00:36:12;;;;;;;;;;;10.90;99.90;;;;;;5062695;28;19985;-76
2023/10/27 00:38:40;;;;;;;;;;;10.80;99.90;;;;;;5059582;28;19971;-76
2023/10/27 00:41:08;;;;;;;;;;;10.80;99.90;;;;;;5058997;28;19974;-79
2023/10/27 00:43:36;;;;;;;;;;;10.80;99.90;;;;;;5061281;28;19963;-78
2023/10/27 00:46:04;;;;;;;;;;;10.90;99.90;;;;;;5062775;28;19973;-78
2023/10/27 00:48:33;;;;;;;;;;;10.90;99.90;;;;;;5052658;28;19967;-77
2023/10/27 00:51:01;;;;;;;;;;;10.80;99.90;;;;;;5050739;28;20005;-77
2023/10/27 00:53:29;;;;;;;;;;;10.90;99.90;;;;;;5059159;28;19967;-77
2023/10/27 00:55:57;;;;;;;;;;;10.90;99.90;;;;;;5055897;28;19963;-77
2023/10/27 00:58:25;;;;;;;;;;;10.90;99.90;;;;;;5062268;28;19975;-77
2023/10/27 01:00:55;;;;;;;;;;;10.90;99.90;;;;;;5051209;28;19979;-76
2023/10/27 01:03:23;;;;;;;;;;;11.00;99.90;;;;;;5057627;28;20427;-76
2023/10/27 01:05:53;;;;;;;;;;;11.00;99.90;;;;;;5063118;28;19962;-77
2023/10/27 01:08:20;;;;;;;;;;;11.00;99.90;;;;;;5054990;28;19970;-77
2023/10/27 01:10:51;;;;;;;;;;;11.10;99.90;;;;;;5053741;28;20379;-77
2023/10/27 01:13:22;;;;;;;;;;;11.10;99.90;;;;;;5061818;28;20441;-77
2023/10/27 01:15:50;;;;;;;;;;;11.10;99.90;;;;;;5044937;28;19963;-78
2023/10/27 01:18:17;;;;;;;;;;;11.10;99.90;;;;;;5054736;28;20061;-78
2023/10/27 01:20:45;;;;;;;;;;;11.00;99.90;;;;;;5054330;28;19966;-79
2023/10/27 01:23:15;;;;;;;;;;;11.00;99.90;;;;;;5062786;28;20066;-78
2023/10/27 01:25:43;;;;;;;;;;;11.10;99.90;;;;;;5062885;28;19970;-78
2023/10/27 01:28:11;;;;;;;;;;;11.10;99.90;;;;;;5054280;28;20017;-77
2023/10/27 01:30:38;;;;;;;;;;;11.10;99.90;;;;;;5060032;28;20049;-76
2023/10/27 01:33:06;;;;;;;;;;;11.10;99.90;;;;;;5053990;28;19963;-78
2023/10/27 01:35:35;;;;;;;;;;;11.20;99.90;;;;;;5053144;28;19975;-77
2023/10/27 01:38:02;;;;;;;;;;;11.10;99.90;;;;;;5065656;28;19963;-76
2023/10/27 01:40:32;;;;;;;;;;;11.00;99.90;;;;;;5065127;28;20359;-78
2023/10/27 01:42:59;;;;;;;;;;;11.10;99.90;;;;;;5054451;28;19970;-76
2023/10/27 01:45:27;;;;;;;;;;;11.00;99.90;;;;;;5054406;28;19967;-76
2023/10/27 01:47:55;;;;;;;;;;;11.00;99.90;;;;;;5061636;28;19963;-77
2023/10/27 01:50:23;;;;;;;;;;;10.90;99.90;;;;;;5061842;28;20119;-79
2023/10/27 01:52:51;;;;;;;;;;;10.90;99.90;;;;;;5056033;28;19963;-79
2023/10/27 01:55:19;;;;;;;;;;;10.90;99.90;;;;;;5053576;28;19967;-77
2023/10/27 01:57:48;;;;;;;;;;;10.90;99.90;;;;;;5064630;28;20063;-75
2023/10/27 02:00:16;;;;;;;;;;;11.00;99.90;;;;;;5058218;28;20502;-76
2023/10/27 02:02:44;;;;;;;;;;;11.00;99.90;;;;;;5061738;28;19978;-76
2023/10/27 02:05:12;;;;;;;;;;;11.00;99.90;;;;;;5061720;28;20433;-76
2023/10/27 02:07:40;;;;;;;;;;;11.00;99.90;;;;;;5039971;28;20465;-75
2023/10/27 02:10:08;;;;;;;;;;;11.10;99.90;;;;;;5038827;28;19971;-75
2023/10/27 02:12:36;;;;;;;;;;;11.10;99.90;;;;;;5035085;28;19967;-75
2023/10/27 02:15:05;;;;;;;;;;;11.00;99.90;;;;;;5033239;28;19983;-76
2023/10/27 02:17:33;;;;;;;;;;;10.90;99.90;;;;;;5033697;28;19964;-76
2023/10/27 02:20:01;;;;;;;;;;;10.90;99.90;;;;;;5044816;28;19969;-75
2023/10/27 02:22:29;;;;;;;;;;;10.90;99.90;;;;;;5044525;28;19967;-77
2023/10/27 02:24:57;;;;;;;;;;;10.90;99.90;;;;;;5041361;28;19963;-78
2023/10/27 02:27:25;;;;;;;;;;;10.90;99.90;;;;;;5032447;28;20014;-77
2023/10/27 02:29:53;;;;;;;;;;;11.00;99.90;;;;;;5032517;28;20069;-78
2023/10/27 02:32:22;;;;;;;;;;;11.00;99.90;;;;;;5032884;28;20175;-76
2023/10/27 02:34:50;;;;;;;;;;;11.00;99.90;;;;;;5033822;28;20006;-77
2023/10/27 02:37:18;;;;;;;;;;;11.10;99.90;;;;;;5040947;28;19971;-77
2023/10/27 02:39:46;;;;;;;;;;;11.10;99.90;;;;;;5032624;28;19963;-79
2023/10/27 02:42:13;;;;;;;;;;;11.10;99.90;;;;;;5038383;28;19971;-77
2023/10/27 02:44:42;;;;;;;;;;;11.10;99.90;;;;;;5042776;28;19967;-77
2023/10/27 02:47:10;;;;;;;;;;;11.10;99.90;;;;;;5032534;28;19967;-76
2023/10/27 02:49:39;;;;;;;;;;;11.10;99.90;;;;;;5032391;28;19967;-76
2023/10/27 02:52:08;;;;;;;;;;;11.10;99.90;;;;;;5032435;28;19978;-78
2023/10/27 02:54:36;;;;;;;;;;;11.00;99.90;;;;;;5040602;28;19967;-78
2023/10/27 02:57:04;;;;;;;;;;;11.10;99.90;;;;;;5032853;28;20446;-78
2023/10/27 02:59:32;;;;;;;;;;;11.10;99.90;;;;;;5040861;28;19963;-80
2023/10/27 03:01:59;;;;;;;;;;;11.10;99.90;;;;;;5024656;28;20056;-78
2023/10/27 03:04:27;;;;;;;;;;;11.00;99.90;;;;;;5040036;28;19966;-79
2023/10/27 03:06:57;;;;;;;;;;;11.00;99.90;;;;;;5045175;28;20057;-78
2023/10/27 03:09:25;;;;;;;;;;;11.00;99.90;;;;;;5060180;28;19967;-77
2023/10/27 03:11:53;;;;;;;;;;;10.80;99.90;;;;;;5060338;28;19966;-77
2023/10/27 03:14:21;;;;;;;;;;;10.80;99.90;;;;;;5051900;28;19967;-77
2023/10/27 03:16:49;;;;;;;;;;;10.80;99.90;;;;;;5060139;28;20518;-77
2023/10/27 03:19:17;;;;;;;;;;;10.80;99.90;;;;;;5060123;28;19974;-77
2023/10/27 03:21:46;;;;;;;;;;;10.70;99.90;;;;;;5051632;28;20009;-81
2023/10/27 03:24:15;;;;;;;;;;;10.70;99.90;;;;;;5051620;28;20629;-77
2023/10/27 03:26:43;;;;;;;;;;;10.70;99.90;;;;;;5051608;28;20021;-77
2023/10/27 03:29:10;;;;;;;;;;;10.70;99.90;;;;;;5051724;28;19970;-78
2023/10/27 03:31:39;;;;;;;;;;;10.70;99.90;;;;;;5060375;28;20460;-80
2023/10/27 03:34:06;;;;;;;;;;;10.70;99.90;;;;;;5051834;28;20453;-79
2023/10/27 03:36:34;;;;;;;;;;;10.80;99.90;;;;;;5060120;28;19971;-81
2023/10/27 03:39:02;;;;;;;;;;;10.80;99.90;;;;;;5055957;28;20380;-78
2023/10/27 03:41:31;;;;;;;;;;;10.90;99.90;;;;;;5060210;28;19978;-78
2023/10/27 03:43:59;;;;;;;;;;;11.00;99.90;;;;;;5054983;28;19962;-78
2023/10/27 03:46:27;;;;;;;;;;;11.00;99.90;;;;;;5056325;28;19979;-80
2023/10/27 03:48:55;;;;;;;;;;;11.00;99.90;;;;;;5051381;28;19974;-78
2023/10/27 03:51:25;;;;;;;;;;;11.10;99.90;;;;;;5059795;28;19974;-80
2023/10/27 03:53:54;;;;;;;;;;;11.10;99.90;;;;;;5051534;28;19974;-76
2023/10/27 03:56:22;;;;;;;;;;;11.10;99.90;;;;;;5057639;28;19967;-77
2023/10/27 03:58:51;;;;;;;;;;;11.10;99.90;;;;;;5052864;28;19967;-77
2023/10/27 04:01:20;;;;;;;;;;;11.00;99.90;;;;;;5051113;28;19989;-76
2023/10/27 04:03:47;;;;;;;;;;;11.10;99.90;;;;;;5060305;28;19970;-77
2023/10/27 04:06:15;;;;;;;;;;;11.10;99.90;;;;;;5063052;28;19967;-77
2023/10/27 04:08:43;;;;;;;;;;;11.20;99.90;;;;;;5061850;28;19974;-76
2023/10/27 04:11:11;;;;;;;;;;;11.20;99.90;;;;;;5059459;28;20356;-78
2023/10/27 04:13:39;;;;;;;;;;;11.30;99.90;;;;;;5054010;28;19967;-82
2023/10/27 04:16:08;;;;;;;;;;;11.30;99.90;;;;;;5051936;28;19967;-80
2023/10/27 04:18:36;;;;;;;;;;;11.40;99.90;;;;;;5055352;28;20453;-77
2023/10/27 04:21:04;;;;;;;;;;;11.40;99.90;;;;;;5042712;28;20531;-77
2023/10/27 04:23:32;;;;;;;;;;;11.30;99.90;;;;;;5041734;28;20036;-81
2023/10/27 04:26:00;;;;;;;;;;;11.30;99.90;;;;;;5041285;28;19971;-79
2023/10/27 04:28:28;;;;;;;;;;;11.30;99.90;;;;;;5041792;28;20021;-78
2023/10/27 04:30:56;;;;;;;;;;;11.30;99.90;;;;;;5040560;28;20488;-78
2023/10/27 04:33:25;;;;;;;;;;;11.30;99.90;;;;;;5041696;28;20069;-80
2023/10/27 04:35:53;;;;;;;;;;;11.30;99.90;;;;;;5041086;28;20066;-79
2023/10/27 04:38:21;;;;;;;;;;;11.40;99.90;;;;;;5041610;28;19971;-80
2023/10/27 04:40:51;;;;;;;;;;;11.40;99.90;;;;;;5040074;28;19971;-79
2023/10/27 04:43:21;;;;;;;;;;;11.30;99.90;;;;;;5041402;28;19966;-80
2023/10/27 04:45:49;;;;;;;;;;;11.40;99.90;;;;;;5041345;28;19970;-78
2023/10/27 04:48:17;;;;;;;;;;;11.50;99.90;;;;;;5041447;28;19990;-76
2023/10/27 04:50:52;;;;;;;;;;;11.40;99.90;;;;;;5041102;28;19975;-77
2023/10/27 04:53:19;;;;;;;;;;;11.60;99.90;;;;;;5045388;28;19974;-78
2023/10/27 04:55:47;;;;;;;;;;;11.60;99.90;;;;;;5045365;28;19977;-78
2023/10/27 04:58:15;;;;;;;;;;;11.60;99.90;;;;;;5044881;28;19971;-76
2023/10/27 05:00:43;;;;;;;;;;;11.60;99.90;;;;;;5043268;28;20006;-80
2023/10/27 05:03:12;;;;;;;;;;;11.60;99.90;;;;;;5044457;28;20681;-78
2023/10/27 05:05:39;;;;;;;;;;;11.60;99.90;;;;;;5045115;28;19994;-76
2023/10/27 05:08:09;;;;;;;;;;;11.70;99.90;;;;;;5044823;28;19974;-77
2023/10/27 05:10:42;;;;;;;;;;;11.70;99.90;;;;;;5042830;28;20325;-80
2023/10/27 05:13:09;;;;;;;;;;;11.70;99.90;;;;;;5044975;28;20412;-76
2023/10/27 05:15:38;;;;;;;;;;;11.70;99.90;;;;;;5044422;28;19974;-79
2023/10/27 05:18:06;;;;;;;;;;;11.60;99.90;;;;;;5043993;28;19971;-78
2023/10/27 05:20:38;;;;;;;;;;;11.60;99.90;;;;;;5042753;28;19978;-79
2023/10/27 05:23:05;;;;;;;;;;;11.60;99.90;;;;;;5043921;28;19975;-77
2023/10/27 05:25:35;;;;;;;;;;;11.60;99.90;;;;;;5044482;28;19975;-79
2023/10/27 05:28:03;;;;;;;;;;;11.60;99.90;;;;;;5044505;28;19974;-78
2023/10/27 05:30:34;;;;;;;;;;;11.60;99.90;;;;;;5042542;28;20206;-78
2023/10/27 05:33:02;;;;;;;;;;;11.60;99.90;;;;;;5044000;28;19971;-79
2023/10/27 05:35:30;;;;;;;;;;;11.60;99.90;;;;;;5044843;28;19970;-79
2023/10/27 05:37:58;;;;;;;;;;;11.60;99.90;;;;;;5044366;28;19967;-78
2023/10/27 05:40:31;;;;;;;;;;;11.70;99.90;;;;;;5042935;28;20457;-77
2023/10/27 05:43:01;;;;;;;;;;;11.60;99.90;;;;;;5043748;28;19967;-79
2023/10/27 05:45:29;;;;;;;;;;;11.60;99.90;;;;;;5043697;28;19963;-79
2023/10/27 05:47:57;;;;;;;;;;;11.40;99.90;;;;;;5044314;28;19970;-78
2023/10/27 05:50:25;;;;;;;;;;;11.40;99.90;;;;;;5042684;28;19966;-79
2023/10/27 05:52:52;;;;;;;;;;;11.30;99.90;;;;;;5044223;28;20025;-79
2023/10/27 05:55:20;;;;;;;;;;;11.20;99.90;;;;;;5044025;28;19978;-78
2023/10/27 05:57:48;;;;;;;;;;;11.10;99.90;;;;;;5045116;28;20078;-78
2023/10/27 06:00:18;;;;;;;;;;;11.00;99.90;;;;;;5041885;28;20356;-79
2023/10/27 06:02:46;;;;;;;;;;;11.00;99.90;;;;;;5052116;28;19963;-77
2023/10/27 06:05:14;;;;;;;;;;;11.00;99.90;;;;;;5053825;28;19962;-78
2023/10/27 06:07:42;;;;;;;;;;;11.00;99.90;;;;;;5054141;28;19963;-79
2023/10/27 06:10:10;;;;;;;;;;;11.00;99.90;;;;;;5054240;28;19975;-78
2023/10/27 06:12:38;;;;;;;;;;;11.00;99.90;;;;;;5060599;28;19975;-82
2023/10/27 06:15:07;;;;;;;;;;;11.00;99.90;;;;;;5056733;28;20046;-77
2023/10/27 06:17:36;;;;;;;;;;;11.10;99.90;;;;;;5058848;28;19970;-80
2023/10/27 06:20:05;;;;;;;;;;;11.20;99.90;;;;;;5071333;28;19970;-79
2023/10/27 06:22:45;;;;;;;;;;;11.20;99.90;;;;;;5062720;28;19963;-78
2023/10/27 06:25:13;;;;;;;;;;;11.30;99.90;;;;;;5059626;28;19990;-79
2023/10/27 06:27:41;;;;;;;;;;;11.40;99.90;;;;;;5060521;28;20057;-79
2023/10/27 06:30:09;;;;;;;;;;;11.30;99.90;;;;;;5059115;28;19973;-79
2023/10/27 06:32:38;;;;;;;;;;;11.40;99.90;;;;;;5060161;28;19966;-79
2023/10/27 06:35:06;;;;;;;;;;;11.30;99.90;;;;;;5059999;28;19967;-80
2023/10/27 06:37:35;;;;;;;;;;;11.30;99.90;;;;;;5059377;28;20026;-79
2023/10/27 06:40:04;;;;;;;;;;;11.20;99.90;;;;;;5057893;28;19973;-79
2023/10/27 06:42:33;;;;;;;;;;;11.20;99.90;;;;;;5053513;28;19994;-79
2023/10/27 06:45:00;;;;;;;;;;;11.10;99.90;;;;;;5052587;28;19963;-78
2023/10/27 06:47:28;;;;;;;;;;;11.10;99.90;;;;;;5052718;28;19963;-78
2023/10/27 06:49:58;;;;;;;;;;;11.10;99.90;;;;;;5052333;28;20061;-79
2023/10/27 06:52:26;;;;;;;;;;;11.10;99.90;;;;;;5052762;28;20449;-77
2023/10/27 06:54:54;;;;;;;;;;;11.10;99.90;;;;;;5052442;28;20374;-77
2023/10/27 06:57:21;;;;;;;;;;;11.00;99.90;;;;;;5044577;28;19967;-78
2023/10/27 06:59:49;;;;;;;;;;;11.00;99.90;;;;;;5052329;28;19967;-78
2023/10/27 07:02:17;;;;;;;;;;;11.00;99.90;;;;;;5052168;28;20042;-79
2023/10/27 07:04:45;;;;;;;;;;;11.00;99.90;;;;;;5052319;28;19963;-79
2023/10/27 07:07:15;;;;;;;;;;;11.00;99.90;;;;;;5051867;28;19974;-80
2023/10/27 07:09:48;;;;;;;;;;;11.00;99.90;;;;;;5052412;28;19963;-78
2023/10/27 07:12:16;;;;;;;;;;;11.10;99.90;;;;;;5054899;28;20717;-78
2023/10/27 07:14:44;;;;;;;;;;;11.10;99.90;;;;;;5057361;28;19970;-79
2023/10/27 07:17:12;;;;;;;;;;;11.10;99.90;;;;;;5060004;28;19997;-79
2023/10/27 07:19:40;;;;;;;;;;;11.10;99.90;;;;;;5053359;28;19967;-79
2023/10/27 07:22:11;;;;;;;;;;;11.20;99.90;;;;;;5053876;28;19974;-78
2023/10/27 07:24:40;;;;;;;;;;;11.20;99.90;;;;;;5051675;28;20061;-78
2023/10/27 07:27:08;;;;;;;;;;;11.30;99.90;;;;;;5051785;28;20464;-78
2023/10/27 07:29:35;;;;;;;;;;;11.30;99.90;;;;;;5051804;28;19973;-78
2023/10/27 07:32:04;;;;;;;;;;;11.30;99.90;;;;;;5051752;28;19967;-78
2023/10/27 07:34:32;;;;;;;;;;;11.40;99.90;;;;;;5051497;28;19974;-78
2023/10/27 07:37:00;;;;;;;;;;;11.50;99.90;;;;;;5051819;28;20094;-77
2023/10/27 07:39:28;;;;;;;;;;;11.50;99.90;;;;;;5059243;28;20002;-78
2023/10/27 07:41:57;;;;;;;;;;;11.50;99.90;;;;;;5051768;28;20433;-79
2023/10/27 07:44:25;;;;;;;;;;;11.50;99.90;;;;;;5043618;28;20331;-78
2023/10/27 07:46:53;;;;;;;;;;;11.50;99.90;;;;;;5051510;28;19967;-80
2023/10/27 07:49:21;;;;;;;;;;;11.60;99.90;;;;;;5051226;28;19970;-78
2023/10/27 07:51:49;;;;;;;;;;;11.60;99.90;;;;;;5051569;28;19963;-78
2023/10/27 07:54:17;;;;;;;;;;;11.50;99.90;;;;;;5059357;28;20468;-79
2023/10/27 07:56:46;;;;;;;;;;;11.60;99.90;;;;;;5051188;28;19967;-78
2023/10/27 07:59:15;;;;;;;;;;;11.40;99.90;;;;;;5051159;28;19974;-78
2023/10/27 08:01:43;;;;;;;;;;;11.50;99.90;;;;;;5051580;28;20433;-79
2023/10/27 08:04:10;;;;;;;;;;;11.60;99.90;;;;;;5050994;28;20453;-79
2023/10/27 08:06:38;;;;;;;;;;;11.60;99.90;;;;;;5051001;28;19967;-78
2023/10/27 08:09:06;;;;;;;;;;;11.70;99.90;;;;;;5051670;28;20387;-81
2023/10/27 08:11:34;;;;;;;;;;;11.80;99.90;;;;;;5051184;28;19970;-81
2023/10/27 08:14:04;;;;;;;;;;;11.80;99.90;;;;;;5051023;28;19966;-78
2023/10/27 08:16:33;;;;;;;;;;;11.90;99.90;;;;;;5051112;28;20055;-78
2023/10/27 08:19:01;;;;;;;;;;;11.90;99.90;;;;;;5051404;28;19963;-79
2023/10/27 08:21:29;;;;;;;;;;;11.80;99.90;;;;;;5051153;28;20025;-80
2023/10/27 08:23:56;;;;;;;;;;;11.80;99.90;;;;;;5050778;28;19970;-77
2023/10/27 08:26:24;;;;;;;;;;;11.80;99.90;;;;;;5062376;28;19998;-79
2023/10/27 08:28:52;;;;;;;;;;;11.80;99.90;;;;;;5055356;28;19967;-78
2023/10/27 08:31:20;;;;;;;;;;;11.70;99.90;;;;;;5055282;28;20053;-78
2023/10/27 08:33:49;;;;;;;;;;;11.60;99.90;;;;;;5055134;28;19963;-79
2023/10/27 08:36:19;;;;;;;;;;;11.50;99.90;;;;;;5063230;28;20169;-78
2023/10/27 08:38:49;;;;;;;;;;;11.40;99.90;;;;;;5055365;28;19970;-79
2023/10/27 08:41:17;;;;;;;;;;;11.40;99.90;;;;;;5055681;28;20044;-80
2023/10/27 08:43:45;;;;;;;;;;;11.30;99.90;;;;;;5055370;28;19963;-78
2023/10/27 08:46:13;;;;;;;;;;;11.20;99.90;;;;;;5063375;28;19993;-79
2023/10/27 08:48:42;;;;;;;;;;;11.20;99.90;;;;;;5055664;28;19963;-78
2023/10/27 08:51:13;;;;;;;;;;;11.10;99.90;;;;;;5054829;28;19971;-80
2023/10/27 08:53:41;;;;;;;;;;;11.30;99.90;;;;;;5056286;28;20421;-80
2023/10/27 08:56:12;;;;;;;;;;;11.00;99.90;;;;;;5054350;28;20449;-79
2023/10/27 08:58:40;;;;;;;;;;;11.00;99.90;;;;;;5055431;28;19962;-79
2023/10/27 09:01:08;;;;;;;;;;;11.10;99.90;;;;;;5054905;28;20062;-79
2023/10/27 09:03:36;;;;;;;;;;;11.10;99.90;;;;;;5068822;28;20020;-78
2023/10/27 09:06:04;;;;;;;;;;;11.10;99.90;;;;;;5058954;28;19967;-79
2023/10/27 09:08:34;;;;;;;;;;;11.10;99.90;;;;;;5050826;28;19986;-78
2023/10/27 09:11:01;;;;;;;;;;;11.10;99.90;;;;;;5060223;28;19970;-79
2023/10/27 09:13:38;;;;;;;;;;;11.10;99.90;;;;;;5054751;28;19987;-82
2023/10/27 09:16:06;;;;;;;;;;;11.20;99.90;;;;;;5055047;28;19963;-80
2023/10/27 09:18:35;;;;;;;;;;;11.20;99.90;;;;;;5047508;28;20061;-79
2023/10/27 09:21:03;;;;;;;;;;;11.00;99.90;;;;;;5064132;28;19963;-80
2023/10/27 09:23:43;;;;;;;;;;;11.10;99.90;;;;;;5058841;28;19985;-79
2023/10/27 09:26:12;;;;;;;;;;;11.10;99.90;;;;;;5057950;28;20066;-79
2023/10/27 09:28:40;;;;;;;;;;;11.20;99.90;;;;;;5055982;28;20025;-80
2023/10/27 09:31:08;;;;;;;;;;;11.20;99.90;;;;;;5055252;28;20024;-79
2023/10/27 09:33:36;;;;;;;;;;;11.20;99.90;;;;;;5062867;28;19970;-79
2023/10/27 09:36:06;;;;;;;;;;;11.30;99.90;;;;;;5055555;28;19967;-79
2023/10/27 09:38:33;;;;;;;;;;;11.30;99.90;;;;;;5054020;28;19970;-79
2023/10/27 09:41:04;;;;;;;;;;;11.30;99.90;;;;;;5054139;28;19962;-79
2023/10/27 09:43:35;;;;;;;;;;;11.30;99.90;;;;;;5054479;28;20016;-79
2023/10/27 09:46:04;;;;;;;;;;;11.40;99.90;;;;;;5062313;28;19962;-79
2023/10/27 09:48:32;;;;;;;;;;;11.30;99.90;;;;;;5054547;28;20038;-79
2023/10/27 09:51:02;;;;;;;;;;;11.30;99.90;;;;;;5054904;28;20025;-79
2023/10/27 09:53:31;;;;;;;;;;;11.40;99.90;;;;;;5053928;28;20355;-79
2023/10/27 09:55:59;;;;;;;;;;;11.40;99.90;;;;;;5054558;28;20339;-78
2023/10/27 09:58:29;;;;;;;;;;;11.40;99.90;;;;;;5054557;28;20226;-79
2023/10/27 10:00:59;;;;;;;;;;;11.50;99.90;;;;;;5056657;28;19989;-79
2023/10/27 10:03:27;;;;;;;;;;;11.60;99.90;;;;;;5063750;28;19967;-80
2023/10/27 10:06:09;;;;;;;;;;;11.60;99.90;;;;;;5056303;28;19962;-80
2023/10/27 10:08:37;;;;;;;;;;;11.70;99.90;;;;;;5046994;28;19969;-80
2023/10/27 10:11:12;;;;;;;;;;;12.00;99.90;;;;;;5055734;28;19970;-81
2023/10/27 10:13:44;;;;;;;;;;;12.20;99.90;;;;;;5040351;28;19963;-79
2023/10/27 10:16:14;;;;;;;;;;;12.40;99.90;;;;;;4971735;28;20427;-68
2023/10/27 10:18:51;;;;;;;;;;;12.80;99.90;;;;;;4974263;28;20023;-67
2023/10/27 10:21:33;;;;;;;;;;;13.00;99.90;;;;;;4974228;28;19979;-68
2023/10/27 10:24:10;;;;;;;;;;;13.20;99.90;;;;;;4974233;28;20331;-68
2023/10/27 10:26:56;;;;;;;;;;;13.60;99.90;;;;;;4973942;28;20062;-67
2023/10/27 10:29:32;;;;;;;;;;;14.10;99.90;;;;;;4973990;28;19979;-67
2023/10/27 10:32:21;;;;;;;;;;;14.50;99.90;;;;;;4974427;28;20453;-68
2023/10/27 10:35:04;;;;;;;;;;;14.60;99.90;;;;;;4974804;28;19968;-67
2023/10/27 10:37:33;;;;;;;;;;;14.40;99.90;;;;;;4973334;28;19968;-68
2023/10/27 10:40:17;;;;;;;;;;;14.10;99.90;;;;;;4973896;28;20054;-67
2023/10/27 10:43:03;;;;;;;;;;;13.90;99.90;;;;;;4973991;28;20431;-68
2023/10/27 10:45:32;;;;;;;;;;;13.80;99.90;;;;;;4973622;28;19968;-68
2023/10/27 10:48:00;;;;;;;;;;;13.70;99.90;;;;;;4967597;28;19972;-69
2023/10/27 10:50:28;;;;;;;;;;;13.60;99.90;;;;;;4955947;28;20024;-67
2023/10/27 10:53:11;;;;;;;;;;;13.50;99.90;;;;;;4973855;28;20327;-68
2023/10/27 10:55:40;;;;;;;;;;;13.40;99.90;;;;;;4973225;28;19972;-68
2023/10/27 10:58:08;;;;;;;;;;;13.30;99.90;;;;;;4973677;28;19968;-67
2023/10/27 11:00:36;;;;;;;;;;;13.30;99.90;;;;;;4973391;28;19972;-67
2023/10/27 11:03:07;;;;;;;;;;;13.20;99.90;;;;;;4965753;28;20427;-68
2023/10/27 11:05:35;;;;;;;;;;;13.10;99.90;;;;;;4973245;28;20389;-69
2023/10/27 11:08:04;;;;;;;;;;;13.10;99.90;;;;;;4973459;28;20015;-68
2023/10/27 11:10:32;;;;;;;;;;;12.90;99.90;;;;;;4973144;28;20421;-67
2023/10/27 11:13:05;;;;;;;;;;;12.90;99.90;;;;;;4973484;28;19964;-68
2023/10/27 11:15:43;;;;;;;;;;;12.80;99.90;;;;;;4972882;28;20019;-68
2023/10/27 11:18:14;;;;;;;;;;;12.90;99.90;;;;;;4973398;28;19969;-67
2023/10/27 11:20:43;;;;;;;;;;;12.90;99.90;;;;;;4972803;28;19975;-69
2023/10/27 11:23:11;;;;;;;;;;;12.90;99.90;;;;;;4973296;28;20027;-68
2023/10/27 11:25:40;;;;;;;;;;;13.00;99.90;;;;;;4972967;28;19972;-68
2023/10/27 11:28:26;;;;;;;;;;;13.20;99.90;;;;;;4973296;28;20078;-68
2023/10/27 11:31:01;;;;;;;;;;;13.30;99.90;;;;;;4972874;28;19972;-68
2023/10/27 11:33:29;;;;;;;;;;;13.30;99.90;;;;;;4972890;28;19993;-68
2023/10/27 11:35:57;;;;;;;;;;;13.40;99.90;;;;;;4965009;28;20071;-68
2023/10/27 11:38:32;;;;;;;;;;;13.60;99.90;;;;;;4972788;28;19968;-68
2023/10/27 11:41:10;;;;;;;;;;;13.70;99.90;;;;;;4972874;28;20391;-68
2023/10/27 11:43:39;;;;;;;;;;;13.90;99.90;;;;;;4972774;28;19968;-67
2023/10/27 11:46:11;;;;;;;;;;;14.10;99.90;;;;;;4972832;28;20054;-68
2023/10/27 11:48:39;;;;;;;;;;;14.20;99.90;;;;;;4972834;28;20334;-68
2023/10/27 11:51:07;;;;;;;;;;;14.10;99.90;;;;;;4972574;28;19979;-68
2023/10/27 11:53:35;;;;;;;;;;;14.30;99.90;;;;;;4972518;28;20015;-68
2023/10/27 11:56:04;;;;;;;;;;;14.40;99.90;;;;;;4972467;28;20015;-68
2023/10/27 11:58:32;;;;;;;;;;;14.60;99.90;;;;;;4972305;28;19988;-69
2023/10/27 12:01:01;;;;;;;;;;;14.70;99.90;;;;;;4971445;28;20447;-68
2023/10/27 12:03:29;;;;;;;;;;;14.70;99.90;;;;;;4972328;28;20028;-67
2023/10/27 12:05:57;;;;;;;;;;;14.60;99.90;;;;;;4972845;28;20015;-68
2023/10/27 12:08:25;;;;;;;;;;;14.50;99.90;;;;;;4971990;28;19969;-68
2023/10/27 12:10:53;;;;;;;;;;;14.40;99.90;;;;;;4972391;28;19964;-68
2023/10/27 12:13:22;;;;;;;;;;;14.30;99.90;;;;;;4972415;28;19969;-68
2023/10/27 12:15:50;;;;;;;;;;;14.30;99.90;;;;;;4964310;28;19971;-68
2023/10/27 12:18:20;;;;;;;;;;;14.30;99.90;;;;;;4972355;28;19972;-67
2023/10/27 12:20:50;;;;;;;;;;;14.30;99.90;;;;;;4971664;28;19964;-67
2023/10/27 12:23:18;;;;;;;;;;;14.20;99.90;;;;;;4972470;28;19968;-68
2023/10/27 12:25:46;;;;;;;;;;;14.20;99.90;;;;;;4971989;28;19964;-67
2023/10/27 12:28:14;;;;;;;;;;;14.20;99.90;;;;;;4972368;28;19975;-68
2023/10/27 12:30:41;;;;;;;;;;;14.20;99.90;;;;;;4971848;28;19968;-68
2023/10/27 12:33:10;;;;;;;;;;;14.40;99.90;;;;;;4972533;28;19972;-68
2023/10/27 12:35:39;;;;;;;;;;;15.10;99.90;;;;;;4972077;28;20442;-68
2023/10/27 12:38:07;;;;;;;;;;;15.40;99.90;;;;;;4972293;28;20515;-67
2023/10/27 12:40:36;;;;;;;;;;;15.50;99.90;;;;;;4971976;28;19969;-69
2023/10/27 12:43:04;;;;;;;;;;;15.40;99.90;;;;;;4972273;28;20463;-67
2023/10/27 12:45:32;;;;;;;;;;;15.20;99.90;;;;;;4971947;28;20526;-68
2023/10/27 12:48:01;;;;;;;;;;;15.00;99.90;;;;;;4950358;28;19972;-69
2023/10/27 12:50:30;;;;;;;;;;;14.90;99.90;;;;;;4968939;28;19969;-68
2023/10/27 12:53:00;;;;;;;;;;;14.70;99.90;;;;;;4972010;28;19964;-68
2023/10/27 12:55:29;;;;;;;;;;;14.50;99.90;;;;;;4971882;28;20019;-69
2023/10/27 12:58:03;;;;;;;;;;;14.40;99.90;;;;;;4972189;28;20027;-68
2023/10/27 13:00:31;;;;;;;;;;;14.30;99.90;;;;;;4971784;28;19968;-68
2023/10/27 13:02:59;;;;;;;;;;;14.30;99.90;;;;;;4971852;28;19975;-68
2023/10/27 13:05:28;;;;;;;;;;;14.40;99.90;;;;;;4971936;28;20057;-68
2023/10/27 13:07:56;;;;;;;;;;;14.30;99.90;;;;;;4972176;28;20501;-69
2023/10/27 13:10:26;;;;;;;;;;;14.30;99.90;;;;;;4971996;28;20015;-67
2023/10/27 13:12:56;;;;;;;;;;;14.30;99.90;;;;;;4974637;28;20477;-69
2023/10/27 13:15:24;;;;;;;;;;;14.30;99.90;;;;;;4975417;28;19975;-69
2023/10/27 13:17:52;;;;;;;;;;;14.20;99.90;;;;;;4975297;28;20342;-69
2023/10/27 13:20:20;;;;;;;;;;;14.20;99.90;;;;;;4975426;28;20083;-68
2023/10/27 13:22:48;;;;;;;;;;;14.20;99.90;;;;;;4975014;28;19973;-68
2023/10/27 13:25:15;;;;;;;;;;;14.20;99.90;;;;;;4975504;28;20470;-67
2023/10/27 13:27:48;;;;;;;;;;;14.20;99.90;;;;;;4967172;28;20015;-68
2023/10/27 13:30:16;;;;;;;;;;;14.10;99.90;;;;;;4975388;28;19972;-68
2023/10/27 13:32:46;;;;;;;;;;;14.10;99.90;;;;;;4975021;28;19976;-68
2023/10/27 13:35:13;;;;;;;;;;;14.00;99.90;;;;;;4975174;28;20373;-68
2023/10/27 13:37:42;;;;;;;;;;;13.90;99.90;;;;;;4974981;28;19975;-68
2023/10/27 13:40:36;;;;;;;;;;;13.90;99.90;;;;;;4974908;28;19983;-67
2023/10/27 13:43:30;;;;;;;;;;;13.90;99.90;;;;;;4974857;28;19975;-67
2023/10/27 13:46:01;;;;;;;;;;;13.70;99.90;;;;;;4974942;28;19964;-68
2023/10/27 13:48:28;;;;;;;;;;;13.70;99.90;;;;;;4967570;28;20419;-67
2023/10/27 13:50:56;;;;;;;;;;;13.60;99.90;;;;;;4974467;28;20007;-67
2023/10/27 13:53:24;;;;;;;;;;;13.50;99.90;;;;;;4974998;28;19972;-67
2023/10/27 13:55:52;;;;;;;;;;;13.40;99.90;;;;;;4974515;28;19968;-68
2023/10/27 13:58:20;;;;;;;;;;;13.40;99.90;;;;;;4974991;28;19968;-68
2023/10/27 14:00:49;;;;;;;;;;;13.30;99.90;;;;;;4974288;28;19972;-68
2023/10/27 14:03:17;;;;;;;;;;;13.40;99.90;;;;;;4974698;28;19972;-67
2023/10/27 14:05:49;;;;;;;;;;;13.40;99.90;;;;;;4974338;28;19968;-67
2023/10/27 14:08:17;;;;;;;;;;;13.60;99.90;;;;;;4974834;28;19968;-68
2023/10/27 14:10:44;;;;;;;;;;;13.80;99.90;;;;;;4974457;28;20448;-69
2023/10/27 14:13:12;;;;;;;;;;;14.00;99.90;;;;;;4974384;28;20050;-68
2023/10/27 14:15:40;;;;;;;;;;;14.20;99.90;;;;;;4974127;28;19972;-68
2023/10/27 14:18:09;;;;;;;;;;;14.20;99.90;;;;;;4974508;28;20382;-68
2023/10/27 14:20:37;;;;;;;;;;;14.20;99.90;;;;;;4974083;28;19972;-67
2023/10/27 14:23:05;;;;;;;;;;;14.20;99.90;;;;;;4973446;28;19964;-67
2023/10/27 14:25:35;;;;;;;;;;;14.20;99.90;;;;;;4974318;28;19968;-68
2023/10/27 14:28:03;;;;;;;;;;;14.30;99.90;;;;;;4974251;28;20054;-68